createdAt,value
2017-07-26T00:00:26.955Z,94.09
2017-07-26T00:02:54.367Z,94.00
2017-07-26T00:05:21.760Z,94.13
2017-07-26T00:07:49.161Z,93.80
2017-07-26T00:10:16.560Z,93.86
2017-07-26T00:12:43.983Z,93.70
2017-07-26T00:15:11.383Z,93.15
2017-07-26T00:17:38.787Z,93.31
2017-07-26T00:20:06.201Z,93.83
2017-07-26T00:22:33.660Z,93.61
2017-07-26T00:25:01.103Z,93.48
2017-07-26T00:27:28.515Z,93.56
2017-07-26T00:29:55.910Z,93.67
2017-07-26T00:32:23.307Z,93.81
2017-07-26T00:34:50.738Z,93.65
2017-07-26T00:37:18.139Z,93.47
2017-07-26T00:39:45.556Z,93.47
2017-07-26T00:42:12.975Z,93.39
2017-07-26T00:44:40.380Z,93.58
2017-07-26T00:47:07.783Z,93.64
2017-07-26T00:49:35.347Z,93.54
2017-07-26T00:52:02.746Z,93.55
2017-07-26T00:54:30.152Z,94.16
2017-07-26T00:56:57.577Z,93.99
2017-07-26T00:59:24.964Z,94.14
2017-07-26T01:01:52.360Z,94.03
2017-07-26T01:04:19.776Z,94.73
2017-07-26T01:06:47.176Z,95.21
2017-07-26T01:09:14.575Z,95.19
2017-07-26T01:11:41.996Z,94.96
2017-07-26T01:14:09.399Z,94.25
2017-07-26T01:16:36.797Z,94.00
2017-07-26T01:19:04.229Z,94.89
2017-07-26T01:21:31.608Z,94.78
2017-07-26T01:23:59.010Z,94.59
2017-07-26T01:26:26.432Z,94.19
2017-07-26T01:28:53.844Z,93.78
2017-07-26T01:31:21.236Z,93.77
2017-07-26T01:33:48.639Z,93.91
2017-07-26T01:36:16.039Z,93.75
2017-07-26T01:38:43.452Z,93.67
2017-07-26T01:41:10.867Z,94.29
2017-07-26T01:43:38.269Z,94.29
2017-07-26T01:46:05.683Z,93.93
2017-07-26T01:48:33.104Z,94.28
2017-07-26T01:51:00.495Z,93.92
2017-07-26T01:53:27.925Z,93.56
2017-07-26T01:55:55.334Z,93.76
2017-07-26T01:58:22.734Z,93.77
2017-07-26T02:00:50.128Z,93.80
2017-07-26T02:03:17.539Z,93.73
2017-07-26T02:05:44.935Z,93.89
2017-07-26T02:08:12.343Z,93.77
2017-07-26T02:10:39.751Z,93.70
2017-07-26T02:13:07.155Z,93.75
2017-07-26T02:15:34.571Z,93.90
2017-07-26T02:18:02.144Z,93.81
2017-07-26T02:20:29.578Z,93.65
2017-07-26T02:22:56.991Z,93.63
2017-07-26T02:25:24.399Z,93.51
2017-07-26T02:27:51.787Z,93.63
2017-07-26T02:30:19.196Z,93.77
2017-07-26T02:32:46.607Z,93.60
2017-07-26T02:35:14.022Z,94.43
2017-07-26T02:37:41.415Z,94.33
2017-07-26T02:40:08.834Z,94.46
2017-07-26T02:42:36.223Z,94.17
2017-07-26T02:45:03.624Z,94.31
2017-07-26T02:47:31.191Z,94.50
2017-07-26T02:49:58.584Z,94.35
2017-07-26T02:52:25.988Z,94.30
2017-07-26T02:54:53.626Z,94.37
2017-07-26T02:57:21.028Z,94.40
2017-07-26T02:59:48.419Z,94.49
2017-07-26T03:02:15.826Z,94.53
2017-07-26T03:04:43.226Z,94.30
2017-07-26T03:07:10.630Z,94.30
2017-07-26T03:09:38.040Z,94.33
2017-07-26T03:12:05.440Z,94.40
2017-07-26T03:14:32.828Z,94.41
2017-07-26T03:17:00.244Z,94.06
2017-07-26T03:19:27.635Z,94.16
2017-07-26T03:21:55.051Z,94.28
2017-07-26T03:24:22.463Z,94.14
2017-07-26T03:26:49.871Z,94.17
2017-07-26T03:29:17.284Z,94.17
2017-07-26T03:31:44.690Z,94.03
2017-07-26T03:34:12.092Z,94.14
2017-07-26T03:36:39.500Z,94.08
2017-07-26T03:39:06.928Z,94.23
2017-07-26T03:41:34.327Z,94.32
2017-07-26T03:44:01.720Z,94.22
2017-07-26T03:46:29.144Z,94.39
2017-07-26T03:48:56.538Z,94.67
2017-07-26T03:51:23.935Z,95.06
2017-07-26T03:53:51.484Z,94.99
2017-07-26T03:56:18.884Z,94.96
2017-07-26T03:58:46.288Z,94.96
2017-07-26T04:01:13.715Z,94.77
2017-07-26T04:03:41.102Z,94.67
2017-07-26T04:06:08.530Z,94.73
2017-07-26T04:08:35.940Z,94.64
2017-07-26T04:11:03.334Z,94.46
2017-07-26T04:13:30.726Z,94.39
2017-07-26T04:15:58.148Z,94.74
2017-07-26T04:18:25.562Z,94.75
2017-07-26T04:20:52.985Z,94.68
2017-07-26T04:23:20.383Z,94.75
2017-07-26T04:25:47.793Z,94.82
2017-07-26T04:28:15.214Z,94.84
2017-07-26T04:30:42.615Z,94.67
2017-07-26T04:33:10.019Z,94.74
2017-07-26T04:35:37.411Z,94.63
2017-07-26T04:38:04.819Z,94.69
2017-07-26T04:40:32.215Z,94.58
2017-07-26T04:42:59.615Z,94.56
2017-07-26T04:45:27.043Z,94.38
2017-07-26T04:47:54.439Z,94.37
2017-07-26T04:50:21.847Z,94.11
2017-07-26T04:52:49.254Z,94.12
2017-07-26T04:55:16.654Z,94.41
2017-07-26T04:57:44.067Z,94.46
2017-07-26T05:00:11.478Z,94.20
2017-07-26T05:02:38.879Z,94.05
2017-07-26T05:05:06.279Z,94.21
2017-07-26T05:07:33.726Z,94.05
2017-07-26T05:10:01.142Z,93.85
2017-07-26T05:12:28.545Z,93.89
2017-07-26T05:14:55.984Z,93.35
2017-07-26T05:17:23.379Z,93.45
2017-07-26T05:19:50.798Z,93.05
2017-07-26T05:22:18.195Z,92.98
2017-07-26T05:24:45.627Z,93.19
2017-07-26T05:27:13.019Z,93.13
2017-07-26T05:29:40.482Z,93.28
2017-07-26T05:32:07.887Z,93.08
2017-07-26T05:34:35.298Z,93.67
2017-07-26T05:37:02.711Z,93.76
2017-07-26T05:39:30.124Z,93.71
2017-07-26T05:41:57.530Z,92.97
2017-07-26T05:44:25.014Z,93.12
2017-07-26T05:46:52.422Z,93.07
2017-07-26T05:49:19.871Z,93.00
2017-07-26T05:51:47.288Z,92.84
2017-07-26T05:54:14.688Z,93.10
2017-07-26T05:56:42.161Z,93.29
2017-07-26T05:59:09.574Z,92.34
2017-07-26T06:01:36.987Z,92.51
2017-07-26T06:04:04.405Z,92.49
2017-07-26T06:06:31.810Z,91.24
2017-07-26T06:08:59.234Z,91.80
2017-07-26T06:11:26.671Z,91.26
2017-07-26T06:13:54.094Z,91.13
2017-07-26T06:16:21.523Z,91.55
2017-07-26T06:18:48.915Z,91.25
2017-07-26T06:21:16.337Z,91.52
2017-07-26T06:23:43.723Z,91.37
2017-07-26T06:26:11.165Z,91.09
2017-07-26T06:28:38.585Z,90.20
2017-07-26T06:31:06.026Z,90.88
2017-07-26T06:33:33.417Z,89.57
2017-07-26T06:36:00.919Z,91.00
2017-07-26T06:38:28.310Z,90.60
2017-07-26T06:40:55.719Z,90.34
2017-07-26T06:43:23.134Z,89.91
2017-07-26T06:45:50.562Z,90.45
2017-07-26T06:48:17.978Z,90.03
2017-07-26T06:50:45.408Z,89.93
2017-07-26T06:53:12.819Z,89.51
2017-07-26T06:55:40.206Z,88.99
2017-07-26T06:58:07.630Z,89.84
2017-07-26T07:00:35.042Z,88.91
2017-07-26T07:03:02.451Z,88.86
2017-07-26T07:05:30.871Z,88.85
2017-07-26T07:07:58.291Z,88.33
2017-07-26T07:10:25.703Z,89.00
2017-07-26T07:12:53.123Z,88.87
2017-07-26T07:15:20.525Z,87.93
2017-07-26T07:17:47.915Z,87.31
2017-07-26T07:20:15.335Z,87.91
2017-07-26T07:22:42.726Z,88.48
2017-07-26T07:25:10.123Z,87.51
2017-07-26T07:27:37.527Z,87.35
2017-07-26T07:30:04.922Z,85.92
2017-07-26T07:32:32.314Z,86.12
2017-07-26T07:34:59.727Z,85.98
2017-07-26T07:37:27.120Z,86.13
2017-07-26T07:39:54.516Z,86.36
2017-07-26T07:42:21.931Z,85.54
2017-07-26T07:44:49.324Z,86.30
2017-07-26T07:47:16.719Z,85.84
2017-07-26T07:49:44.130Z,85.51
2017-07-26T07:52:11.515Z,85.52
2017-07-26T07:54:38.911Z,85.13
2017-07-26T07:57:06.323Z,85.39
2017-07-26T07:59:33.742Z,84.29
2017-07-26T08:02:01.126Z,84.79
2017-07-26T08:04:28.658Z,85.45
2017-07-26T08:06:56.066Z,84.61
2017-07-26T08:09:23.454Z,85.10
2017-07-26T08:11:50.888Z,84.21
2017-07-26T08:14:18.281Z,84.87
2017-07-26T08:16:45.671Z,84.45
2017-07-26T08:19:13.138Z,84.92
2017-07-26T08:21:40.530Z,84.98
2017-07-26T08:24:07.918Z,85.62
2017-07-26T08:26:35.331Z,85.16
2017-07-26T08:29:02.735Z,83.95
2017-07-26T08:31:30.127Z,84.11
2017-07-26T08:33:57.540Z,82.96
2017-07-26T08:36:24.935Z,83.14
2017-07-26T08:38:52.331Z,82.95
2017-07-26T08:41:19.755Z,83.15
2017-07-26T08:43:47.139Z,83.88
2017-07-26T08:46:14.530Z,81.36
2017-07-26T08:48:41.950Z,80.67
2017-07-26T08:51:09.344Z,78.53
2017-07-26T08:53:36.743Z,79.54
2017-07-26T08:56:04.167Z,80.03
2017-07-26T08:58:31.564Z,80.98
2017-07-26T09:00:58.966Z,81.90
2017-07-26T09:03:26.381Z,81.30
2017-07-26T09:05:53.775Z,81.93
2017-07-26T09:08:21.179Z,82.52
2017-07-26T09:10:48.592Z,81.21
2017-07-26T09:13:15.988Z,80.31
2017-07-26T09:15:43.381Z,81.59
2017-07-26T09:18:10.787Z,80.36
2017-07-26T09:20:38.188Z,79.90
2017-07-26T09:23:05.578Z,80.16
2017-07-26T09:25:32.995Z,78.84
2017-07-26T09:28:00.391Z,78.22
2017-07-26T09:30:27.790Z,77.21
2017-07-26T09:32:55.198Z,74.62
2017-07-26T09:35:22.599Z,75.46
2017-07-26T09:37:50.283Z,74.12
2017-07-26T09:40:17.685Z,73.42
2017-07-26T09:42:45.099Z,73.21
2017-07-26T09:45:12.601Z,74.31
2017-07-26T09:47:40.023Z,74.01
2017-07-26T09:50:07.504Z,73.43
2017-07-26T09:52:34.951Z,72.11
2017-07-26T09:55:02.587Z,70.67
2017-07-26T09:57:30.884Z,69.25
2017-07-26T09:59:58.343Z,65.68
2017-07-26T10:02:25.795Z,64.72
2017-07-26T10:04:53.214Z,63.57
2017-07-26T10:07:20.611Z,61.76
2017-07-26T10:09:48.067Z,59.99
2017-07-26T10:12:15.476Z,61.67
2017-07-26T10:14:42.890Z,60.18
2017-07-26T10:17:10.337Z,64.09
2017-07-26T10:19:37.743Z,61.46
2017-07-26T10:22:05.167Z,61.67
2017-07-26T10:24:32.569Z,61.67
2017-07-26T10:26:59.971Z,63.32
2017-07-26T10:29:27.656Z,61.97
2017-07-26T10:31:55.083Z,60.71
2017-07-26T10:34:22.544Z,60.77
2017-07-26T10:36:49.950Z,60.16
2017-07-26T10:39:17.463Z,59.61
2017-07-26T10:41:44.874Z,59.90
2017-07-26T10:44:12.303Z,58.88
2017-07-26T10:46:39.749Z,59.78
2017-07-26T10:49:07.153Z,60.50
2017-07-26T10:51:34.607Z,53.64
2017-07-26T10:54:02.023Z,56.47
2017-07-26T10:59:35.420Z,52.97
2017-07-26T11:02:02.852Z,53.12
2017-07-26T11:04:30.251Z,51.88
2017-07-26T11:06:57.814Z,52.80
2017-07-26T11:09:25.234Z,52.81
2017-07-26T11:11:52.724Z,54.17
2017-07-26T11:14:20.262Z,48.76
2017-07-26T11:16:47.669Z,51.61
2017-07-26T11:19:15.069Z,47.22
2017-07-26T11:21:42.557Z,47.54
2017-07-26T11:24:09.972Z,47.59
2017-07-26T11:26:37.358Z,47.08
2017-07-26T11:29:04.801Z,47.62
2017-07-26T11:31:32.218Z,48.04
2017-07-26T11:33:59.606Z,51.11
2017-07-26T11:36:27.576Z,51.94
2017-07-26T11:38:54.955Z,54.11
2017-07-26T11:41:22.355Z,56.96
2017-07-26T11:43:49.797Z,58.44
2017-07-26T11:46:17.237Z,59.00
2017-07-26T11:48:44.685Z,60.83
2017-07-26T11:51:12.222Z,61.23
2017-07-26T11:53:39.630Z,62.52
2017-07-26T11:56:07.018Z,62.37
2017-07-26T11:58:34.540Z,61.95
2017-07-26T12:01:01.981Z,64.35
2017-07-26T12:03:30.194Z,64.39
2017-07-26T12:05:57.622Z,64.29
2017-07-26T12:08:24.994Z,64.45
2017-07-26T12:10:52.395Z,64.70
2017-07-26T12:13:21.319Z,66.01
2017-07-26T12:15:48.708Z,65.04
2017-07-26T12:18:16.115Z,63.30
2017-07-26T12:20:43.533Z,61.08
2017-07-26T12:23:10.950Z,61.92
2017-07-26T12:25:38.394Z,61.79
2017-07-26T12:28:06.138Z,60.66
2017-07-26T12:30:33.538Z,60.48
2017-07-26T12:33:00.952Z,62.31
2017-07-26T12:35:28.454Z,61.60
2017-07-26T12:37:55.842Z,62.37
2017-07-26T12:40:23.234Z,63.39
2017-07-26T12:42:50.821Z,62.47
2017-07-26T12:45:18.223Z,61.83
2017-07-26T12:47:45.630Z,61.98
2017-07-26T12:50:13.174Z,61.76
2017-07-26T12:52:40.571Z,60.80
2017-07-26T12:55:07.959Z,60.95
2017-07-26T12:57:35.458Z,60.47
2017-07-26T13:00:02.871Z,60.76
2017-07-26T13:02:30.274Z,56.52
2017-07-26T13:04:57.679Z,57.55
2017-07-26T13:07:25.104Z,54.44
2017-07-26T13:09:52.494Z,56.64
2017-07-26T13:12:19.919Z,56.65
2017-07-26T13:14:47.314Z,55.19
2017-07-26T13:17:14.705Z,55.63
2017-07-26T13:19:42.250Z,56.20
2017-07-26T13:22:09.634Z,55.81
2017-07-26T13:24:37.038Z,54.53
2017-07-26T13:27:04.655Z,56.05
2017-07-26T13:29:32.051Z,54.25
2017-07-26T13:31:59.446Z,54.13
2017-07-26T13:34:27.010Z,55.98
2017-07-26T13:36:54.406Z,53.91
2017-07-26T13:39:21.802Z,57.66
2017-07-26T13:41:49.207Z,55.81
2017-07-26T13:44:16.596Z,55.06
2017-07-26T13:46:44.021Z,54.83
2017-07-26T13:49:11.429Z,55.09
2017-07-26T13:51:38.819Z,56.43
2017-07-26T13:54:06.206Z,56.91
2017-07-26T13:56:33.630Z,56.24
2017-07-26T13:59:01.035Z,54.58
2017-07-26T14:01:28.450Z,56.51
2017-07-26T14:03:55.903Z,57.15
2017-07-26T14:06:23.286Z,54.93
2017-07-26T14:08:55.275Z,53.77
2017-07-26T14:11:22.681Z,54.89
2017-07-26T14:13:51.043Z,54.29
2017-07-26T14:16:18.419Z,55.72
2017-07-26T14:18:45.834Z,54.40
2017-07-26T14:21:13.235Z,53.67
2017-07-26T14:23:40.687Z,54.74
2017-07-26T14:26:08.278Z,53.84
2017-07-26T14:28:35.655Z,52.88
2017-07-26T14:31:03.058Z,54.94
2017-07-26T14:33:31.782Z,56.37
2017-07-26T14:35:59.170Z,56.53
2017-07-26T14:38:26.630Z,55.60
2017-07-26T14:40:54.143Z,53.39
2017-07-26T14:43:21.591Z,53.00
2017-07-26T14:45:49.066Z,54.99
2017-07-26T14:48:16.602Z,54.51
2017-07-26T14:50:44.779Z,53.51
2017-07-26T14:53:12.159Z,51.61
2017-07-26T14:55:40.239Z,54.11
2017-07-26T14:58:08.399Z,52.05
2017-07-26T15:00:35.790Z,50.77
2017-07-26T15:03:03.353Z,50.30
2017-07-26T15:05:31.214Z,49.17
2017-07-26T15:07:59.763Z,51.80
2017-07-26T15:10:28.051Z,48.68
2017-07-26T15:12:55.462Z,49.51
2017-07-26T15:15:23.030Z,49.86
2017-07-26T15:17:50.690Z,51.15
2017-07-26T15:20:18.214Z,47.97
2017-07-26T15:22:45.954Z,49.08
2017-07-26T15:25:13.996Z,50.64
2017-07-26T15:27:41.406Z,48.80
2017-07-26T15:30:08.867Z,48.93
2017-07-26T15:32:36.454Z,46.97
2017-07-26T15:35:03.852Z,47.92
2017-07-26T15:37:31.298Z,47.25
2017-07-26T15:39:58.938Z,47.77
2017-07-26T15:42:26.949Z,47.85
2017-07-26T15:44:54.336Z,47.98
2017-07-26T15:47:21.910Z,49.40
2017-07-26T15:49:49.322Z,48.47
2017-07-26T15:52:17.758Z,47.71
2017-07-26T15:54:45.180Z,47.18
2017-07-26T15:57:12.566Z,48.22
2017-07-26T15:59:39.962Z,46.83
2017-07-26T16:02:07.382Z,46.97
2017-07-26T16:04:34.816Z,47.88
2017-07-26T16:07:02.208Z,47.80
2017-07-26T16:09:29.630Z,48.33
2017-07-26T16:11:57.038Z,47.33
2017-07-26T16:14:24.464Z,47.44
2017-07-26T16:16:52.126Z,46.17
2017-07-26T16:19:19.538Z,48.09
2017-07-26T16:21:46.937Z,46.50
2017-07-26T16:24:14.362Z,47.34
2017-07-26T16:26:41.794Z,46.85
2017-07-26T16:29:09.191Z,47.09
2017-07-26T16:31:36.650Z,47.80
2017-07-26T16:34:04.099Z,47.38
2017-07-26T16:36:31.485Z,47.89
2017-07-26T16:38:58.886Z,47.64
2017-07-26T16:41:26.279Z,48.75
2017-07-26T16:43:53.674Z,47.88
2017-07-26T16:46:21.122Z,48.25
2017-07-26T16:48:48.526Z,47.57
2017-07-26T16:51:15.931Z,47.19
2017-07-26T16:53:43.470Z,47.54
2017-07-26T16:56:10.891Z,48.04
2017-07-26T16:58:38.303Z,48.82
2017-07-26T17:01:09.831Z,48.70
2017-07-26T17:03:37.258Z,48.88
2017-07-26T17:06:04.634Z,48.52
2017-07-26T17:08:32.080Z,48.39
2017-07-26T17:10:59.515Z,49.69
2017-07-26T17:13:26.905Z,48.45
2017-07-26T17:15:54.342Z,48.47
2017-07-26T17:18:21.726Z,48.53
2017-07-26T17:20:49.111Z,51.84
2017-07-26T17:23:16.546Z,50.26
2017-07-26T17:25:43.927Z,55.93
2017-07-26T17:28:11.362Z,56.13
2017-07-26T17:30:38.898Z,52.98
2017-07-26T17:33:06.291Z,55.12
2017-07-26T17:35:33.674Z,52.29
2017-07-26T17:38:01.214Z,54.74
2017-07-26T17:40:28.597Z,60.06
2017-07-26T17:42:55.985Z,56.19
2017-07-26T17:45:23.622Z,61.86
2017-07-26T17:47:51.007Z,53.62
2017-07-26T17:50:19.208Z,56.83
2017-07-26T17:52:46.742Z,58.86
2017-07-26T17:55:14.131Z,57.96
2017-07-26T17:57:41.515Z,55.82
2017-07-26T18:00:08.923Z,59.55
2017-07-26T18:02:36.311Z,54.49
2017-07-26T18:05:03.707Z,54.90
2017-07-26T18:07:31.296Z,54.64
2017-07-26T18:09:58.687Z,55.88
2017-07-26T18:12:26.066Z,56.08
2017-07-26T18:14:53.602Z,59.92
2017-07-26T18:17:21.002Z,62.78
2017-07-26T18:19:48.393Z,64.77
2017-07-26T18:22:15.882Z,65.55
2017-07-26T18:24:43.275Z,65.90
2017-07-26T18:27:11.806Z,66.48
2017-07-26T18:29:39.354Z,66.04
2017-07-26T18:32:07.227Z,66.70
2017-07-26T18:34:34.910Z,67.27
2017-07-26T18:37:02.491Z,66.54
2017-07-26T18:39:30.744Z,66.74
2017-07-26T18:41:58.160Z,67.32
2017-07-26T18:44:25.675Z,67.22
2017-07-26T18:46:53.085Z,67.67
2017-07-26T18:49:20.491Z,67.78
2017-07-26T18:51:47.898Z,68.00
2017-07-26T18:54:15.302Z,68.00
2017-07-26T18:56:42.720Z,68.41
2017-07-26T18:59:10.134Z,68.35
2017-07-26T19:01:37.534Z,67.64
2017-07-26T19:04:04.926Z,67.85
2017-07-26T19:06:32.726Z,67.55
2017-07-26T19:09:00.118Z,67.32
2017-07-26T19:11:27.510Z,68.11
2017-07-26T19:13:55.239Z,68.45
2017-07-26T19:16:22.626Z,68.26
2017-07-26T19:18:50.018Z,68.43
2017-07-26T19:21:17.467Z,69.08
2017-07-26T19:23:44.854Z,68.72
2017-07-26T19:26:12.252Z,67.59
2017-07-26T19:28:39.662Z,67.94
2017-07-26T19:31:07.063Z,68.59
2017-07-26T19:33:34.473Z,69.52
2017-07-26T19:36:02.026Z,67.55
2017-07-26T19:38:29.420Z,67.42
2017-07-26T19:40:56.810Z,66.87
2017-07-26T19:43:24.314Z,67.66
2017-07-26T19:45:51.706Z,66.90
2017-07-26T19:48:19.098Z,68.00
2017-07-26T19:50:46.646Z,68.51
2017-07-26T19:53:14.043Z,68.76
2017-07-26T19:55:41.435Z,68.18
2017-07-26T19:58:08.999Z,67.82
2017-07-26T20:00:36.395Z,67.07
2017-07-26T20:03:03.791Z,67.82
2017-07-26T20:05:31.338Z,67.22
2017-07-26T20:07:58.746Z,67.32
2017-07-26T20:10:26.138Z,68.25
2017-07-26T20:12:53.695Z,67.95
2017-07-26T20:15:21.950Z,67.56
2017-07-26T20:17:49.347Z,67.49
2017-07-26T20:20:16.894Z,68.14
2017-07-26T20:22:44.291Z,68.87
2017-07-26T20:25:11.678Z,68.36
2017-07-26T20:27:39.093Z,68.41
2017-07-26T20:30:06.486Z,68.17
2017-07-26T20:32:33.880Z,67.99
2017-07-26T20:35:01.296Z,68.25
2017-07-26T20:37:28.686Z,66.96
2017-07-26T20:39:56.078Z,67.07
2017-07-26T20:42:23.632Z,66.78
2017-07-26T20:44:51.022Z,67.37
2017-07-26T20:47:18.418Z,66.85
2017-07-26T20:49:45.962Z,66.98
2017-07-26T20:52:13.364Z,65.82
2017-07-26T20:54:40.755Z,67.37
2017-07-26T20:57:08.191Z,67.67
2017-07-26T20:59:35.582Z,67.18
2017-07-26T21:02:02.966Z,66.29
2017-07-26T21:04:30.515Z,64.88
2017-07-26T21:06:57.925Z,65.88
2017-07-26T21:09:25.314Z,65.59
2017-07-26T21:11:52.755Z,65.99
2017-07-26T21:14:20.142Z,65.07
2017-07-26T21:16:47.538Z,66.48
2017-07-26T21:19:14.958Z,65.02
2017-07-26T21:21:42.345Z,65.67
2017-07-26T21:24:09.739Z,65.73
2017-07-26T21:26:37.386Z,64.31
2017-07-26T21:29:04.777Z,66.07
2017-07-26T21:31:32.170Z,65.43
2017-07-26T21:33:59.763Z,65.48
2017-07-26T21:36:27.154Z,65.31
2017-07-26T21:38:54.555Z,65.00
2017-07-26T21:41:22.339Z,66.05
2017-07-26T21:43:49.735Z,65.79
2017-07-26T21:46:17.135Z,65.58
2017-07-26T21:48:44.918Z,65.97
2017-07-26T21:51:12.319Z,67.78
2017-07-26T21:53:39.704Z,66.83
2017-07-26T21:56:07.288Z,66.94
2017-07-26T21:58:34.683Z,67.21
2017-07-26T22:01:02.074Z,67.67
2017-07-26T22:03:29.483Z,68.36
2017-07-26T22:05:56.878Z,69.84
2017-07-26T22:08:24.267Z,72.12
2017-07-26T22:10:51.719Z,72.54
2017-07-26T22:13:19.110Z,73.71
2017-07-26T22:15:46.506Z,73.79
2017-07-26T22:18:14.002Z,75.59
2017-07-26T22:20:41.390Z,74.97
2017-07-26T22:23:08.779Z,74.47
2017-07-26T22:25:36.321Z,73.65
2017-07-26T22:28:03.714Z,73.46
2017-07-26T22:30:31.103Z,73.96
2017-07-26T22:32:58.514Z,74.62
2017-07-26T22:35:25.895Z,74.84
2017-07-26T22:37:53.286Z,74.31
2017-07-26T22:40:21.111Z,73.70
2017-07-26T22:42:48.503Z,72.70
2017-07-26T22:45:15.890Z,74.16
2017-07-26T22:47:43.302Z,73.34
2017-07-26T22:50:10.706Z,74.04
2017-07-26T22:52:38.093Z,74.66
2017-07-26T22:55:05.515Z,74.80
2017-07-26T22:57:32.903Z,73.94
2017-07-26T23:00:00.291Z,72.69
2017-07-26T23:02:27.863Z,74.25
2017-07-26T23:04:55.255Z,73.19
2017-07-26T23:07:22.665Z,72.18
2017-07-26T23:09:50.102Z,73.14
2017-07-26T23:12:17.511Z,73.24
2017-07-26T23:14:44.894Z,73.40
2017-07-26T23:17:12.329Z,73.67
2017-07-26T23:19:39.765Z,73.03
2017-07-26T23:22:07.174Z,71.75
2017-07-26T23:24:34.734Z,72.02
2017-07-26T23:27:02.118Z,71.56
2017-07-26T23:29:29.536Z,71.77
2017-07-26T23:31:57.030Z,72.76
2017-07-26T23:34:24.465Z,73.88
2017-07-26T23:36:51.874Z,74.31
2017-07-26T23:39:19.287Z,74.65
2017-07-26T23:41:46.711Z,74.84
2017-07-26T23:44:14.104Z,75.17
2017-07-26T23:46:41.558Z,78.01
2017-07-26T23:49:08.946Z,78.09
2017-07-26T23:51:36.379Z,78.20
2017-07-26T23:54:04.050Z,78.84
2017-07-26T23:56:31.450Z,79.71
2017-07-26T23:58:59.452Z,79.63
